createdAt,value
2018-07-31T00:00:32.829Z,46.97
2018-07-31T00:03:01.179Z,49.07
2018-07-31T00:05:29.491Z,47.53
2018-07-31T00:07:57.838Z,47.17
2018-07-31T00:10:26.236Z,47.41
2018-07-31T00:12:54.525Z,48.00
2018-07-31T00:15:22.855Z,50.29
2018-07-31T00:17:51.219Z,47.38
2018-07-31T00:20:19.560Z,47.39
2018-07-31T00:22:47.904Z,47.57
2018-07-31T00:25:16.216Z,47.81
2018-07-31T00:27:44.532Z,49.35
2018-07-31T00:30:12.938Z,49.58
2018-07-31T00:32:41.271Z,48.35
2018-07-31T00:35:09.580Z,49.96
2018-07-31T00:37:37.905Z,48.76
2018-07-31T00:40:06.252Z,49.69
2018-07-31T00:42:34.596Z,49.11
2018-07-31T00:45:02.942Z,51.42
2018-07-31T00:47:32.020Z,49.58
2018-07-31T00:50:00.343Z,49.27
2018-07-31T00:52:28.784Z,49.91
2018-07-31T00:54:57.140Z,50.21
2018-07-31T00:57:25.471Z,50.42
2018-07-31T00:59:53.797Z,50.44
2018-07-31T01:02:22.137Z,49.95
2018-07-31T01:04:50.451Z,50.46
2018-07-31T01:07:18.828Z,50.84
2018-07-31T01:09:47.157Z,50.70
2018-07-31T01:12:15.488Z,50.74
2018-07-31T01:14:43.826Z,50.80
2018-07-31T01:17:12.206Z,50.82
2018-07-31T01:19:40.660Z,52.84
2018-07-31T01:22:09.000Z,50.56
2018-07-31T01:24:37.371Z,51.37
2018-07-31T01:27:05.691Z,50.88
2018-07-31T01:29:34.000Z,52.18
2018-07-31T01:32:02.346Z,50.63
2018-07-31T01:34:30.649Z,50.96
2018-07-31T01:36:58.959Z,51.23
2018-07-31T01:39:27.278Z,50.78
2018-07-31T01:41:55.583Z,51.86
2018-07-31T01:44:23.915Z,51.59
2018-07-31T01:46:52.294Z,52.04
2018-07-31T01:49:20.628Z,52.89
2018-07-31T01:51:48.937Z,52.98
2018-07-31T01:54:17.276Z,51.67
2018-07-31T01:56:45.606Z,52.05
2018-07-31T01:59:13.960Z,52.30
2018-07-31T02:01:42.384Z,52.78
2018-07-31T02:04:10.720Z,52.03
2018-07-31T02:06:39.068Z,53.33
2018-07-31T02:09:08.203Z,52.45
2018-07-31T02:11:36.544Z,54.53
2018-07-31T02:14:04.995Z,52.07
2018-07-31T02:16:33.313Z,52.43
2018-07-31T02:19:01.636Z,53.21
2018-07-31T02:21:29.972Z,53.62
2018-07-31T02:23:58.340Z,52.91
2018-07-31T02:26:26.686Z,52.61
2018-07-31T02:28:55.009Z,53.13
2018-07-31T02:31:23.344Z,52.71
2018-07-31T02:33:51.714Z,54.17
2018-07-31T02:36:20.072Z,53.59
2018-07-31T02:38:48.400Z,53.20
2018-07-31T02:41:16.780Z,52.84
2018-07-31T02:43:45.106Z,53.23
2018-07-31T02:46:13.443Z,55.83
2018-07-31T02:48:41.790Z,53.01
2018-07-31T02:51:10.122Z,53.34
2018-07-31T02:53:38.475Z,53.63
2018-07-31T02:56:06.823Z,53.39
2018-07-31T02:58:35.161Z,53.42
2018-07-31T03:01:03.494Z,53.94
2018-07-31T03:03:31.884Z,53.53
2018-07-31T03:06:00.207Z,53.71
2018-07-31T03:08:28.543Z,55.95
2018-07-31T03:10:56.875Z,55.83
2018-07-31T03:13:25.199Z,55.45
2018-07-31T03:15:53.579Z,54.15
2018-07-31T03:18:21.910Z,54.77
2018-07-31T03:20:50.227Z,54.78
2018-07-31T03:23:18.581Z,55.43
2018-07-31T03:25:46.895Z,54.72
2018-07-31T03:28:15.264Z,55.87
2018-07-31T03:30:43.583Z,55.52
2018-07-31T03:33:11.897Z,55.70
2018-07-31T03:35:40.270Z,55.36
2018-07-31T03:38:08.616Z,54.89
2018-07-31T03:40:37.013Z,55.30
2018-07-31T03:43:05.336Z,54.89
2018-07-31T03:45:33.724Z,57.17
2018-07-31T03:48:02.101Z,54.85
2018-07-31T03:50:30.445Z,55.26
2018-07-31T03:52:58.775Z,56.15
2018-07-31T03:55:27.174Z,56.21
2018-07-31T03:57:55.482Z,56.07
2018-07-31T04:00:23.816Z,56.26
2018-07-31T04:02:52.161Z,57.28
2018-07-31T04:05:20.540Z,56.33
2018-07-31T04:07:48.844Z,56.29
2018-07-31T04:10:17.192Z,56.77
2018-07-31T04:12:45.520Z,56.69
2018-07-31T04:15:13.840Z,56.23
2018-07-31T04:17:46.332Z,56.45
2018-07-31T04:20:14.855Z,57.46
2018-07-31T04:22:43.218Z,57.26
2018-07-31T04:25:11.576Z,56.34
2018-07-31T04:27:39.920Z,56.40
2018-07-31T04:30:08.260Z,56.54
2018-07-31T04:32:36.595Z,56.87
2018-07-31T04:35:05.058Z,56.38
2018-07-31T04:37:33.364Z,57.13
2018-07-31T04:40:01.683Z,56.43
2018-07-31T04:42:30.017Z,56.13
2018-07-31T04:44:58.353Z,57.08
2018-07-31T04:47:26.683Z,56.96
2018-07-31T04:49:55.008Z,56.62
2018-07-31T04:52:23.402Z,57.08
2018-07-31T04:54:51.730Z,56.20
2018-07-31T04:57:20.066Z,56.75
2018-07-31T04:59:48.452Z,56.92
2018-07-31T05:02:16.784Z,56.78
2018-07-31T05:04:45.103Z,56.18
2018-07-31T05:07:13.405Z,56.46
2018-07-31T05:09:41.750Z,56.39
2018-07-31T05:12:10.080Z,56.59
2018-07-31T05:14:38.391Z,56.59
2018-07-31T05:17:06.731Z,55.90
2018-07-31T05:19:35.060Z,55.76
2018-07-31T05:22:03.440Z,56.46
2018-07-31T05:24:31.752Z,56.55
2018-07-31T05:27:00.083Z,55.76
2018-07-31T05:29:28.403Z,56.18
2018-07-31T05:31:56.720Z,55.82
2018-07-31T05:34:25.110Z,56.64
2018-07-31T05:36:53.636Z,56.18
2018-07-31T05:39:21.976Z,55.69
2018-07-31T05:41:50.290Z,55.13
2018-07-31T05:44:18.628Z,54.80
2018-07-31T05:46:46.947Z,55.22
2018-07-31T05:49:15.276Z,54.71
2018-07-31T05:51:43.647Z,54.27
2018-07-31T05:54:11.978Z,53.79
2018-07-31T05:56:40.312Z,53.38
2018-07-31T05:59:08.642Z,53.41
2018-07-31T06:01:36.967Z,52.85
2018-07-31T06:04:05.324Z,52.58
2018-07-31T06:06:33.647Z,52.62
2018-07-31T06:09:01.974Z,52.44
2018-07-31T06:11:30.300Z,52.77
2018-07-31T06:13:58.636Z,52.18
2018-07-31T06:16:26.995Z,52.43
2018-07-31T06:18:55.339Z,52.81
2018-07-31T06:21:23.665Z,51.95
2018-07-31T06:23:52.016Z,51.40
2018-07-31T06:26:20.361Z,52.32
2018-07-31T06:28:48.721Z,51.57
2018-07-31T06:31:17.067Z,50.75
2018-07-31T06:33:45.411Z,50.54
2018-07-31T06:36:13.760Z,51.09
2018-07-31T06:38:42.110Z,51.73
2018-07-31T06:41:10.446Z,51.70
2018-07-31T06:43:38.789Z,50.98
2018-07-31T06:46:07.949Z,49.62
2018-07-31T06:48:36.291Z,48.58
2018-07-31T06:51:04.618Z,50.97
2018-07-31T06:53:32.951Z,48.80
2018-07-31T06:56:01.286Z,48.84
2018-07-31T06:58:29.652Z,44.57
2018-07-31T07:00:57.985Z,47.15
2018-07-31T07:03:26.718Z,47.23
2018-07-31T07:05:55.669Z,42.14
2018-07-31T07:08:23.989Z,43.06
2018-07-31T07:10:52.311Z,45.28
2018-07-31T07:13:20.714Z,44.40
2018-07-31T07:15:49.101Z,42.86
2018-07-31T07:18:17.439Z,43.57
2018-07-31T07:20:45.780Z,41.59
2018-07-31T07:23:14.114Z,41.95
2018-07-31T07:25:42.648Z,38.00
2018-07-31T07:28:11.050Z,39.35
2018-07-31T07:30:39.374Z,36.28
2018-07-31T07:33:07.705Z,39.31
2018-07-31T07:35:36.213Z,38.56
2018-07-31T07:38:04.534Z,35.83
2018-07-31T07:40:32.850Z,35.46
2018-07-31T07:43:01.168Z,37.56
2018-07-31T07:45:29.508Z,36.10
2018-07-31T07:47:57.845Z,36.05
2018-07-31T07:50:26.181Z,32.52
2018-07-31T07:52:54.607Z,31.38
2018-07-31T07:55:22.952Z,33.36
2018-07-31T07:57:51.301Z,30.17
2018-07-31T08:00:19.662Z,32.68
2018-07-31T08:02:48.003Z,29.09
2018-07-31T08:05:16.339Z,31.49
2018-07-31T08:07:44.670Z,30.29
2018-07-31T08:10:13.011Z,30.22
2018-07-31T08:12:41.387Z,29.53
2018-07-31T08:15:09.709Z,27.78
2018-07-31T08:17:38.050Z,30.21
2018-07-31T08:20:06.920Z,30.24
2018-07-31T08:22:35.312Z,29.14
2018-07-31T08:25:03.656Z,27.63
2018-07-31T08:27:31.966Z,29.29
2018-07-31T08:30:00.317Z,29.41
2018-07-31T08:32:28.680Z,28.95
2018-07-31T08:34:57.003Z,28.60
2018-07-31T08:37:25.325Z,27.03
2018-07-31T08:39:53.690Z,26.36
2018-07-31T08:42:22.037Z,26.69
2018-07-31T08:44:50.356Z,27.19
2018-07-31T08:47:18.675Z,26.09
2018-07-31T08:49:47.013Z,25.04
2018-07-31T08:52:15.561Z,25.23
2018-07-31T08:54:43.889Z,27.08
2018-07-31T08:57:12.240Z,24.74
2018-07-31T08:59:40.572Z,25.17
2018-07-31T09:02:08.903Z,25.31
2018-07-31T09:04:37.284Z,25.07
2018-07-31T09:07:05.624Z,22.36
2018-07-31T09:09:33.997Z,24.61
2018-07-31T09:12:02.298Z,25.41
2018-07-31T09:14:30.605Z,24.15
2018-07-31T09:16:58.906Z,23.79
2018-07-31T09:19:27.263Z,23.28
2018-07-31T09:21:55.589Z,23.23
2018-07-31T09:24:23.896Z,21.06
2018-07-31T09:26:52.216Z,22.89
2018-07-31T09:29:20.560Z,21.36
2018-07-31T09:31:48.882Z,21.58
2018-07-31T09:34:17.195Z,22.26
2018-07-31T09:36:45.486Z,22.33
2018-07-31T09:39:13.819Z,20.21
2018-07-31T09:41:42.131Z,22.69
2018-07-31T09:44:10.574Z,21.22
2018-07-31T09:46:38.894Z,20.25
2018-07-31T09:49:07.231Z,20.06
2018-07-31T09:51:35.537Z,19.90
2018-07-31T09:54:03.901Z,20.81
2018-07-31T09:56:32.202Z,21.31
2018-07-31T09:59:00.566Z,21.10
2018-07-31T10:01:28.870Z,20.06
2018-07-31T10:03:57.234Z,19.49
2018-07-31T10:06:25.536Z,17.64
2018-07-31T10:08:53.870Z,19.99
2018-07-31T10:11:22.187Z,18.29
2018-07-31T10:13:50.626Z,19.32
2018-07-31T10:16:18.960Z,17.84
2018-07-31T10:18:47.306Z,19.63
2018-07-31T10:21:15.662Z,19.16
2018-07-31T10:23:43.975Z,19.40
2018-07-31T10:26:12.295Z,19.20
2018-07-31T10:28:40.616Z,19.29
2018-07-31T10:31:08.922Z,18.78
2018-07-31T10:33:37.249Z,18.99
2018-07-31T10:36:05.630Z,18.99
2018-07-31T10:38:33.954Z,18.27
2018-07-31T10:41:02.283Z,19.12
2018-07-31T10:43:30.586Z,17.75
2018-07-31T10:45:58.902Z,18.98
2018-07-31T10:48:27.241Z,19.15
2018-07-31T10:50:55.597Z,19.20
2018-07-31T10:53:25.318Z,19.24
2018-07-31T10:55:53.654Z,19.53
2018-07-31T10:58:22.415Z,21.29
2018-07-31T11:00:50.755Z,21.11
2018-07-31T11:03:19.062Z,21.82
2018-07-31T11:05:47.358Z,21.67
2018-07-31T11:08:15.750Z,22.10
2018-07-31T11:10:44.100Z,21.96
2018-07-31T11:13:12.456Z,23.23
2018-07-31T11:15:41.034Z,23.47
2018-07-31T11:18:09.407Z,23.80
2018-07-31T11:20:37.738Z,25.02
2018-07-31T11:23:06.127Z,24.33
2018-07-31T11:25:34.476Z,25.02
2018-07-31T11:28:02.831Z,26.61
2018-07-31T11:30:31.149Z,25.52
2018-07-31T11:32:59.542Z,24.58
2018-07-31T11:35:27.919Z,25.23
2018-07-31T11:37:56.255Z,26.65
2018-07-31T11:40:24.585Z,25.52
2018-07-31T11:42:52.924Z,26.49
2018-07-31T11:45:21.263Z,26.35
2018-07-31T11:47:49.577Z,26.00
2018-07-31T11:50:17.921Z,26.08
2018-07-31T11:52:46.265Z,27.19
2018-07-31T11:55:14.615Z,26.81
2018-07-31T11:57:42.936Z,29.09
2018-07-31T12:00:12.594Z,27.35
2018-07-31T12:02:41.075Z,28.26
2018-07-31T12:05:09.423Z,28.93
2018-07-31T12:07:38.652Z,27.43
2018-07-31T12:10:07.032Z,27.24
2018-07-31T12:12:35.409Z,28.65
2018-07-31T12:15:03.771Z,27.58
2018-07-31T12:17:32.107Z,27.63
2018-07-31T12:20:00.431Z,28.87
2018-07-31T12:22:28.790Z,28.66
2018-07-31T12:24:57.108Z,28.14
2018-07-31T12:27:25.448Z,29.50
2018-07-31T12:29:53.783Z,29.74
2018-07-31T12:32:22.105Z,29.66
2018-07-31T12:34:50.419Z,28.78
2018-07-31T12:37:18.766Z,30.09
2018-07-31T12:39:47.084Z,29.32
2018-07-31T12:42:15.439Z,29.94
2018-07-31T12:44:43.798Z,29.20
2018-07-31T12:47:12.104Z,29.80
2018-07-31T12:49:40.450Z,29.50
2018-07-31T12:52:08.844Z,29.25
2018-07-31T12:54:37.160Z,28.62
2018-07-31T12:57:05.643Z,30.09
2018-07-31T12:59:33.968Z,29.23
2018-07-31T13:02:02.312Z,29.90
2018-07-31T13:04:30.650Z,29.64
2018-07-31T13:06:59.001Z,29.64
2018-07-31T13:09:27.365Z,28.83
2018-07-31T13:11:55.685Z,29.50
2018-07-31T13:14:24.027Z,28.85
2018-07-31T13:16:52.360Z,29.56
2018-07-31T13:19:20.713Z,29.32
2018-07-31T13:21:49.057Z,29.93
2018-07-31T13:24:17.386Z,29.28
2018-07-31T13:26:45.726Z,29.45
2018-07-31T13:29:14.031Z,29.88
2018-07-31T13:31:42.389Z,29.32
2018-07-31T13:34:10.744Z,28.92
2018-07-31T13:36:39.140Z,30.43
2018-07-31T13:39:09.199Z,29.93
2018-07-31T13:41:37.507Z,29.36
2018-07-31T13:44:06.169Z,29.35
2018-07-31T13:46:34.467Z,29.64
2018-07-31T13:49:02.844Z,29.61
2018-07-31T13:51:31.224Z,29.55
2018-07-31T13:53:59.568Z,29.03
2018-07-31T13:56:28.248Z,29.99
2018-07-31T13:58:56.633Z,29.88
2018-07-31T14:01:24.985Z,28.98
2018-07-31T14:03:53.330Z,29.46
2018-07-31T14:06:21.708Z,29.62
2018-07-31T14:08:50.059Z,29.25
2018-07-31T14:11:18.391Z,29.58
2018-07-31T14:13:46.779Z,29.54
2018-07-31T14:16:15.098Z,29.36
2018-07-31T14:18:43.432Z,29.89
2018-07-31T14:21:11.800Z,29.38
2018-07-31T14:23:40.131Z,29.10
2018-07-31T14:26:08.516Z,29.37
2018-07-31T14:28:36.839Z,28.76
2018-07-31T14:31:05.171Z,29.41
2018-07-31T14:33:33.522Z,29.07
2018-07-31T14:36:01.827Z,29.73
2018-07-31T14:38:30.174Z,29.10
2018-07-31T14:40:58.526Z,29.46
2018-07-31T14:43:26.877Z,29.56
2018-07-31T14:45:55.214Z,29.09
2018-07-31T14:48:23.650Z,29.55
2018-07-31T14:50:51.989Z,29.07
2018-07-31T14:53:20.465Z,29.10
2018-07-31T14:55:48.873Z,29.11
2018-07-31T14:58:17.209Z,29.25
2018-07-31T15:00:45.529Z,29.00
2018-07-31T15:03:13.838Z,29.75
2018-07-31T15:05:42.188Z,29.53
2018-07-31T15:08:10.502Z,29.75
2018-07-31T15:10:38.843Z,29.40
2018-07-31T15:13:07.190Z,28.53
2018-07-31T15:15:35.529Z,29.16
2018-07-31T15:18:03.859Z,28.58
2018-07-31T15:20:32.238Z,28.63
2018-07-31T15:23:00.569Z,28.67
2018-07-31T15:25:28.908Z,28.69
2018-07-31T15:27:57.250Z,29.35
2018-07-31T15:30:25.621Z,28.84
2018-07-31T15:32:53.977Z,29.29
2018-07-31T15:35:22.376Z,29.17
2018-07-31T15:37:50.700Z,29.06
2018-07-31T15:40:19.063Z,29.35
2018-07-31T15:42:47.515Z,29.11
2018-07-31T15:45:15.855Z,29.58
2018-07-31T15:47:44.274Z,29.67
2018-07-31T15:50:12.629Z,28.84
2018-07-31T15:52:41.005Z,29.10
2018-07-31T15:55:09.389Z,29.01
2018-07-31T15:57:37.766Z,28.53
2018-07-31T16:00:08.522Z,28.51
2018-07-31T16:02:37.128Z,29.28
2018-07-31T16:05:05.642Z,29.31
2018-07-31T16:07:33.973Z,29.32
2018-07-31T16:10:02.324Z,29.15
2018-07-31T16:12:30.655Z,28.68
2018-07-31T16:14:59.037Z,29.11
2018-07-31T16:17:27.385Z,29.05
2018-07-31T16:19:55.841Z,28.95
2018-07-31T16:22:24.757Z,29.26
2018-07-31T16:24:53.105Z,28.83
2018-07-31T16:27:21.440Z,29.33
2018-07-31T16:29:49.843Z,28.66
2018-07-31T16:32:18.246Z,29.20
2018-07-31T16:34:46.629Z,29.19
2018-07-31T16:37:15.003Z,29.49
2018-07-31T16:39:43.431Z,29.03
2018-07-31T16:42:11.813Z,29.05
2018-07-31T16:44:40.239Z,28.69
2018-07-31T16:47:08.618Z,28.91
2018-07-31T16:49:37.005Z,29.02
2018-07-31T16:52:05.335Z,29.03
2018-07-31T16:54:33.783Z,28.84
2018-07-31T16:57:02.277Z,28.67
2018-07-31T16:59:30.604Z,28.87
2018-07-31T17:01:58.951Z,28.46
2018-07-31T17:04:27.318Z,28.92
2018-07-31T17:06:55.696Z,28.83
2018-07-31T17:09:24.037Z,29.12
2018-07-31T17:11:52.500Z,29.22
2018-07-31T17:14:20.964Z,29.12
2018-07-31T17:16:49.375Z,28.69
2018-07-31T17:19:17.751Z,29.00
2018-07-31T17:21:46.800Z,29.59
2018-07-31T17:24:15.162Z,29.02
2018-07-31T17:26:43.541Z,29.53
2018-07-31T17:29:11.948Z,29.40
2018-07-31T17:31:40.307Z,29.16
2018-07-31T17:34:08.733Z,29.75
2018-07-31T17:36:37.121Z,29.44
2018-07-31T17:39:08.104Z,29.31
2018-07-31T17:41:36.479Z,30.34
2018-07-31T17:44:04.873Z,30.62
2018-07-31T17:46:33.344Z,31.74
2018-07-31T17:49:01.678Z,31.98
2018-07-31T17:51:30.047Z,32.11
2018-07-31T17:53:58.438Z,31.37
2018-07-31T17:56:26.841Z,31.26
2018-07-31T17:58:55.226Z,31.41
2018-07-31T18:01:23.593Z,32.26
2018-07-31T18:03:51.974Z,31.81
2018-07-31T18:06:20.371Z,32.18
2018-07-31T18:08:48.715Z,31.80
2018-07-31T18:11:17.048Z,31.89
2018-07-31T18:13:45.385Z,32.57
2018-07-31T18:16:13.735Z,32.56
2018-07-31T18:18:42.127Z,32.37
2018-07-31T18:21:10.440Z,32.41
2018-07-31T18:23:38.868Z,32.20
2018-07-31T18:26:07.168Z,32.27
2018-07-31T18:28:35.561Z,32.85
2018-07-31T18:31:03.937Z,32.74
2018-07-31T18:33:32.326Z,33.16
2018-07-31T18:36:00.704Z,33.06
2018-07-31T18:38:29.064Z,33.05
2018-07-31T18:40:57.436Z,34.00
2018-07-31T18:43:25.795Z,33.49
2018-07-31T18:45:54.154Z,33.54
2018-07-31T18:48:22.516Z,34.01
2018-07-31T18:50:50.854Z,33.63
2018-07-31T18:53:19.342Z,34.13
2018-07-31T18:55:47.650Z,34.09
2018-07-31T18:58:16.029Z,34.38
2018-07-31T19:00:44.369Z,33.76
2018-07-31T19:03:12.716Z,34.43
2018-07-31T19:05:41.053Z,35.33
2018-07-31T19:08:09.432Z,34.54
2018-07-31T19:10:37.782Z,35.19
2018-07-31T19:13:06.287Z,34.78
2018-07-31T19:15:34.642Z,34.93
2018-07-31T19:18:02.991Z,35.15
2018-07-31T19:20:31.332Z,35.40
2018-07-31T19:22:59.717Z,35.29
2018-07-31T19:25:28.132Z,35.49
2018-07-31T19:27:56.535Z,35.48
2018-07-31T19:30:24.887Z,35.76
2018-07-31T19:32:53.242Z,35.62
2018-07-31T19:35:21.594Z,35.69
2018-07-31T19:37:49.920Z,35.88
2018-07-31T19:40:18.300Z,35.96
2018-07-31T19:42:46.841Z,36.46
2018-07-31T19:45:15.189Z,37.57
2018-07-31T19:47:43.541Z,36.30
2018-07-31T19:50:11.888Z,36.37
2018-07-31T19:52:40.778Z,37.32
2018-07-31T19:55:09.152Z,37.40
2018-07-31T19:57:37.514Z,37.47
2018-07-31T20:00:06.254Z,37.70
2018-07-31T20:02:34.661Z,37.41
2018-07-31T20:05:03.056Z,37.55
2018-07-31T20:07:31.397Z,38.15
2018-07-31T20:09:59.768Z,37.88
2018-07-31T20:12:28.108Z,38.58
2018-07-31T20:14:56.499Z,38.81
2018-07-31T20:17:24.864Z,38.92
2018-07-31T20:19:53.283Z,38.47
2018-07-31T20:22:21.648Z,39.22
2018-07-31T20:24:50.311Z,38.46
2018-07-31T20:27:18.658Z,38.33
2018-07-31T20:29:47.008Z,38.31
2018-07-31T20:32:15.413Z,38.20
2018-07-31T20:34:43.800Z,38.58
2018-07-31T20:37:12.173Z,39.45
2018-07-31T20:39:40.511Z,38.39
2018-07-31T20:42:08.857Z,38.40
2018-07-31T20:44:37.207Z,38.30
2018-07-31T20:47:05.579Z,38.42
2018-07-31T20:49:33.911Z,39.12
2018-07-31T20:52:02.289Z,38.38
2018-07-31T20:54:30.671Z,38.35
2018-07-31T20:56:59.015Z,38.30
2018-07-31T20:59:27.407Z,38.23
2018-07-31T21:01:55.784Z,38.96
2018-07-31T21:04:24.991Z,38.66
2018-07-31T21:06:53.320Z,38.31
2018-07-31T21:09:22.152Z,38.79
2018-07-31T21:11:51.615Z,39.09
2018-07-31T21:14:20.436Z,39.46
2018-07-31T21:16:48.835Z,38.54
2018-07-31T21:19:17.189Z,39.34
2018-07-31T21:21:45.524Z,38.58
2018-07-31T21:24:13.984Z,39.19
2018-07-31T21:26:42.323Z,38.72
2018-07-31T21:29:10.745Z,38.76
2018-07-31T21:31:39.082Z,39.19
2018-07-31T21:34:07.398Z,39.11
2018-07-31T21:36:35.723Z,39.68
2018-07-31T21:39:06.136Z,40.07
2018-07-31T21:41:34.509Z,41.32
2018-07-31T21:44:02.860Z,39.68
2018-07-31T21:46:31.192Z,41.52
2018-07-31T21:48:59.532Z,40.54
2018-07-31T21:51:27.871Z,40.19
2018-07-31T21:53:56.215Z,40.52
2018-07-31T21:56:24.536Z,40.45
2018-07-31T21:58:52.904Z,42.01
2018-07-31T22:01:21.249Z,40.46
2018-07-31T22:03:49.636Z,41.09
2018-07-31T22:06:18.010Z,40.57
2018-07-31T22:08:46.344Z,41.18
2018-07-31T22:11:14.703Z,41.66
2018-07-31T22:13:43.051Z,41.61
2018-07-31T22:16:11.421Z,41.11
2018-07-31T22:18:39.860Z,41.26
2018-07-31T22:21:08.215Z,41.25
2018-07-31T22:23:36.572Z,42.11
2018-07-31T22:26:04.962Z,43.49
2018-07-31T22:28:33.352Z,43.97
2018-07-31T22:31:01.772Z,42.15
2018-07-31T22:33:30.151Z,42.08
2018-07-31T22:35:58.496Z,42.78
2018-07-31T22:38:26.837Z,43.74
2018-07-31T22:40:55.230Z,43.03
2018-07-31T22:43:23.564Z,42.62
2018-07-31T22:45:51.940Z,43.52
2018-07-31T22:48:20.278Z,43.20
2018-07-31T22:50:48.596Z,43.37
2018-07-31T22:53:16.930Z,43.74
2018-07-31T22:55:46.031Z,43.99
2018-07-31T22:58:14.385Z,46.13
2018-07-31T23:00:42.730Z,43.95
2018-07-31T23:03:11.059Z,44.75
2018-07-31T23:05:39.410Z,44.29
2018-07-31T23:08:07.796Z,45.82
2018-07-31T23:10:36.143Z,44.40
2018-07-31T23:13:04.480Z,46.53
2018-07-31T23:15:32.831Z,45.72
2018-07-31T23:18:01.176Z,45.43
2018-07-31T23:20:29.515Z,45.21
2018-07-31T23:22:57.887Z,46.50
2018-07-31T23:25:26.244Z,45.28
2018-07-31T23:27:54.587Z,45.74
2018-07-31T23:30:22.949Z,45.93
2018-07-31T23:32:51.313Z,45.70
2018-07-31T23:35:19.659Z,45.97
2018-07-31T23:37:48.030Z,45.59
2018-07-31T23:40:16.383Z,45.88
2018-07-31T23:42:44.723Z,47.33
2018-07-31T23:45:13.071Z,46.10
2018-07-31T23:47:41.418Z,45.75
2018-07-31T23:50:09.778Z,45.86
2018-07-31T23:52:38.176Z,46.18
2018-07-31T23:55:06.506Z,46.47
2018-07-31T23:57:34.863Z,47.80
